Time;durP1;ratioP1;P1;durP2;ratioP2;P2;SDS_P1;SDS_P2;PMS_P1;PMS_P2;Temp;Humidity;BMP_temperature;BMP_pressure;BME280_temperature;BME280_humidity;BME280_pressure;Samples;Min_cycle;Max_cycle;Signal;HPM_P1;HPM_P2
2021/07/06 00:01:55;;;;;;;;;;;;;;;18.23;90.52;98946.94;5094284;28;836;-69
2021/07/06 00:04:22;;;;;;;;;;;;;;;18.22;90.53;98948.97;5094366;28;817;-68
2021/07/06 00:06:49;;;;;;;;;;;;;;;18.21;90.63;98949.44;5094156;28;891;-68
2021/07/06 00:09:16;;;;;;;;;;;;;;;18.18;90.58;98953.97;5094259;28;801;-69
2021/07/06 00:11:42;;;;;;;;;;;;;;;18.17;90.51;98947.59;5093051;28;781;-68
2021/07/06 00:14:09;;;;;;;;;;;;;;;18.18;90.51;98940.00;5093867;28;1244;-68
2021/07/06 00:16:35;;;;;;;;;;;;;;;18.20;90.57;98934.69;5093963;28;814;-68
2021/07/06 00:19:02;;;;;;;;;;;;;;;18.20;90.59;98933.91;5109637;28;1977;-68
2021/07/06 00:21:28;;;;;;;;;;;;;;;18.19;90.61;98935.94;5093967;28;868;-68
2021/07/06 00:23:55;;;;;;;;;;;;;;;18.17;90.57;98930.81;5093735;28;896;-68
2021/07/06 00:26:20;;;;;;;;;;;;;;;18.14;90.59;98934.56;5093830;28;861;-68
2021/07/06 00:28:47;;;;;;;;;;;;;;;18.13;90.61;98930.22;5093941;28;841;-69
2021/07/06 00:31:14;;;;;;;;;;;;;;;18.12;90.81;98922.31;5093671;28;849;-68
2021/07/06 00:33:40;;;;;;;;;;;;;;;18.10;90.66;98922.00;5094016;28;885;-69
2021/07/06 00:36:08;;;;;;;;;;;;;;;18.09;90.60;98920.44;5093634;28;826;-70
2021/07/06 00:38:34;;;;;;;;;;;;;;;18.07;90.85;98915.34;5092636;28;1890;-69
2021/07/06 00:41:01;;;;;;;;;;;;;;;18.05;90.90;98915.06;5093492;28;857;-69
2021/07/06 00:43:28;;;;;;;;;;;;;;;18.04;90.59;98910.69;5093463;28;802;-70
2021/07/06 00:45:56;;;;;;;;;;;;;;;18.04;90.79;98921.88;5093461;28;826;-70
2021/07/06 00:48:23;;;;;;;;;;;;;;;18.04;90.74;98918.31;5093331;28;881;-71
2021/07/06 00:50:50;;;;;;;;;;;;;;;18.04;90.71;98918.31;5093375;28;888;-69
2021/07/06 00:53:17;;;;;;;;;;;;;;;18.03;90.68;98914.75;5093059;28;838;-71
2021/07/06 00:55:44;;;;;;;;;;;;;;;18.02;90.74;98910.41;5093253;28;814;-70
2021/07/06 00:58:16;;;;;;;;;;;;;;;18.02;90.88;98918.03;5093073;28;1882;-70
2021/07/06 01:00:43;;;;;;;;;;;;;;;18.03;90.88;98923.16;5093133;28;806;-70
2021/07/06 01:03:10;;;;;;;;;;;;;;;18.04;90.77;98918.31;5093069;28;864;-70
2021/07/06 01:05:37;;;;;;;;;;;;;;;18.04;90.91;98924.69;5092997;28;873;-71
2021/07/06 01:08:03;;;;;;;;;;;;;;;18.04;90.96;98927.47;5092904;28;820;-70
2021/07/06 01:10:30;;;;;;;;;;;;;;;18.05;91.00;98926.25;5092838;28;798;-73
2021/07/06 01:12:56;;;;;;;;;;;;;;;18.08;90.94;98925.28;5093114;28;910;-73
2021/07/06 01:15:24;;;;;;;;;;;;;;;18.08;91.00;98918.91;5092633;28;1247;-73
2021/07/06 01:18:16;;;;;;;;;;;;;;;18.08;90.81;98924.50;5092903;28;892;-73
2021/07/06 01:20:45;;;;;;;;;;;;;;;18.08;90.79;98924.50;5086762;28;1290;-71
2021/07/06 01:23:12;;;;;;;;;;;;;;;18.07;90.88;98912.56;5092805;28;828;-72
2021/07/06 01:25:40;;;;;;;;;;;;;;;18.02;90.72;98915.22;5093172;28;884;-72
2021/07/06 01:28:07;;;;;;;;;;;;;;;17.98;90.71;98909.03;5092712;28;869;-72
2021/07/06 01:30:34;;;;;;;;;;;;;;;17.95;90.61;98917.13;5091465;28;1258;-74
2021/07/06 01:33:01;;;;;;;;;;;;;;;17.95;90.89;98913.56;5092697;28;782;-74
2021/07/06 01:35:28;;;;;;;;;;;;;;;17.93;90.98;98910.47;5091289;28;1131;-75
2021/07/06 01:37:56;;;;;;;;;;;;;;;17.93;90.99;98899.28;5092625;28;1886;-75
2021/07/06 01:40:24;;;;;;;;;;;;;;;17.92;90.84;98903.31;5092480;28;825;-75
2021/07/06 01:42:51;;;;;;;;;;;;;;;17.92;91.09;98903.31;5092413;28;825;-74
2021/07/06 01:45:19;;;;;;;;;;;;;;;17.96;91.10;98901.13;5092434;28;825;-72
2021/07/06 01:47:47;;;;;;;;;;;;;;;17.99;91.11;98899.38;5107903;28;1276;-72
2021/07/06 01:50:17;;;;;;;;;;;;;;;17.98;90.99;98895.81;5108013;28;1221;-73
2021/07/06 01:52:44;;;;;;;;;;;;;;;17.94;90.91;98892.44;5090801;28;1080;-73
2021/07/06 01:55:12;;;;;;;;;;;;;;;17.88;90.84;98889.53;5092155;28;874;-75
2021/07/06 01:57:40;;;;;;;;;;;;;;;17.86;90.98;98894.81;5092093;28;829;-76
2021/07/06 02:00:07;;;;;;;;;;;;;;;17.83;90.87;98892.97;5092106;28;1943;-72
2021/07/06 02:02:34;;;;;;;;;;;;;;;17.78;90.89;98901.22;5091997;28;806;-77
2021/07/06 02:05:21;;;;;;;;;;;;;;;17.76;90.95;98898.88;5092222;28;875;-76
2021/07/06 02:07:49;;;;;;;;;;;;;;;17.73;90.73;98900.59;5077937;28;1116;-73
2021/07/06 02:10:15;;;;;;;;;;;;;;;17.72;91.00;98907.41;5091904;28;857;-72
2021/07/06 02:12:42;;;;;;;;;;;;;;;17.72;91.01;98909.44;5092151;28;910;-73
2021/07/06 02:15:13;;;;;;;;;;;;;;;17.72;90.91;98906.66;5091723;28;1529;-76
2021/07/06 02:17:40;;;;;;;;;;;;;;;17.72;91.05;98907.41;5092152;28;778;-76
2021/07/06 02:20:08;;;;;;;;;;;;;;;17.72;90.98;98910.22;5091746;28;1967;-76
2021/07/06 02:22:35;;;;;;;;;;;;;;;17.73;91.07;98911.00;5091916;28;857;-77
2021/07/06 02:25:03;;;;;;;;;;;;;;;17.72;91.13;98909.44;5091746;28;922;-75
2021/07/06 02:27:30;;;;;;;;;;;;;;;17.73;91.06;98911.00;5091668;28;797;-75
2021/07/06 02:29:56;;;;;;;;;;;;;;;17.70;91.03;98907.13;5091700;28;880;-74
2021/07/06 02:32:23;;;;;;;;;;;;;;;17.67;91.06;98915.69;5091705;28;833;-76
2021/07/06 02:34:50;;;;;;;;;;;;;;;17.68;91.13;98912.41;5091077;28;920;-72
2021/07/06 02:37:17;;;;;;;;;;;;;;;17.68;91.11;98920.78;5091654;28;832;-72
2021/07/06 02:39:43;;;;;;;;;;;;;;;17.71;91.23;98913.50;5107286;28;1948;-72
2021/07/06 02:42:09;;;;;;;;;;;;;;;17.73;91.19;98917.38;5091606;28;801;-72
2021/07/06 02:44:36;;;;;;;;;;;;;;;17.75;91.23;98926.06;5091621;28;868;-72
2021/07/06 02:47:02;;;;;;;;;;;;;;;17.80;91.09;98921.06;5091572;28;798;-72
2021/07/06 02:49:30;;;;;;;;;;;;;;;17.80;91.14;98923.88;5091486;28;830;-72
2021/07/06 02:51:55;;;;;;;;;;;;;;;17.81;91.11;98923.38;5091434;28;860;-72
2021/07/06 02:54:22;;;;;;;;;;;;;;;17.83;91.26;98922.94;5091417;28;873;-74
2021/07/06 02:56:48;;;;;;;;;;;;;;;17.87;91.25;98917.94;5091572;28;874;-72
2021/07/06 02:59:14;;;;;;;;;;;;;;;17.90;91.35;98923.38;5091447;28;1886;-72
2021/07/06 03:01:41;;;;;;;;;;;;;;;17.93;91.17;98922.41;5091550;28;904;-72
2021/07/06 03:04:07;;;;;;;;;;;;;;;17.96;91.04;98923.47;5091376;28;785;-72
2021/07/06 03:06:34;;;;;;;;;;;;;;;17.98;91.17;98931.41;5091457;28;797;-71
2021/07/06 03:09:00;;;;;;;;;;;;;;;18.00;91.15;98928.91;5091420;28;853;-73
2021/07/06 03:11:27;;;;;;;;;;;;;;;18.04;91.14;98929.50;5107282;28;1158;-71
2021/07/06 03:13:54;;;;;;;;;;;;;;;18.06;90.98;98932.59;5091270;28;1366;-73
2021/07/06 03:16:20;;;;;;;;;;;;;;;18.07;91.11;98929.34;5091316;28;880;-70
2021/07/06 03:18:46;;;;;;;;;;;;;;;18.09;90.89;98928.84;5091246;28;2023;-70
2021/07/06 03:21:13;;;;;;;;;;;;;;;18.09;91.08;98940.81;5091127;28;912;-69
2021/07/06 03:23:39;;;;;;;;;;;;;;;18.10;90.92;98933.19;5089914;28;1440;-69
2021/07/06 03:26:06;;;;;;;;;;;;;;;18.11;91.04;98929.13;5091313;28;789;-69
2021/07/06 03:28:32;;;;;;;;;;;;;;;18.13;91.07;98927.41;5091111;28;809;-71
2021/07/06 03:30:59;;;;;;;;;;;;;;;18.16;91.21;98932.06;5091237;28;940;-70
2021/07/06 03:33:25;;;;;;;;;;;;;;;18.18;91.05;98928.81;5091124;28;810;-68
2021/07/06 03:35:51;;;;;;;;;;;;;;;18.19;91.04;98921.19;5091361;28;869;-70
2021/07/06 03:38:18;;;;;;;;;;;;;;;18.21;90.97;98927.84;5091360;28;1948;-68
2021/07/06 03:40:46;;;;;;;;;;;;;;;18.22;90.87;98926.59;5091321;28;831;-68
2021/07/06 03:43:12;;;;;;;;;;;;;;;18.24;90.83;98938.06;5090000;28;1275;-67
2021/07/06 03:45:40;;;;;;;;;;;;;;;18.27;90.92;98936.34;5091254;28;859;-69
2021/07/06 03:48:06;;;;;;;;;;;;;;;18.33;91.16;98934.47;5094574;28;805;-69
2021/07/06 03:50:33;;;;;;;;;;;;;;;18.39;90.97;98934.56;5094869;28;849;-68
2021/07/06 03:53:00;;;;;;;;;;;;;;;18.45;90.98;98957.81;5094800;28;883;-67
2021/07/06 03:55:27;;;;;;;;;;;;;;;18.49;91.02;98942.41;5094746;28;841;-67
2021/07/06 03:57:54;;;;;;;;;;;;;;;18.56;91.05;98955.25;5094780;28;821;-67
2021/07/06 04:00:26;;;;;;;;;;;;;;;18.59;90.96;98970.34;5094614;28;1893;-67
2021/07/06 04:02:53;;;;;;;;;;;;;;;18.57;90.64;98979.19;5094371;28;821;-67
2021/07/06 04:05:19;;;;;;;;;;;;;;;18.54;90.65;98978.13;5094311;28;818;-67
2021/07/06 04:07:46;;;;;;;;;;;;;;;18.54;90.93;98986.53;5094341;28;864;-68
2021/07/06 04:10:16;;;;;;;;;;;;;;;18.53;90.83;98984.97;5094229;28;825;-68
2021/07/06 04:12:42;;;;;;;;;;;;;;;18.57;91.08;98985.56;5094250;28;926;-68
2021/07/06 04:15:11;;;;;;;;;;;;;;;18.59;91.02;98992.72;5109577;28;1387;-68
2021/07/06 04:17:37;;;;;;;;;;;;;;;18.49;90.80;98992.75;5094055;28;1017;-68
2021/07/06 04:20:05;;;;;;;;;;;;;;;18.40;90.72;98987.25;5094155;28;1975;-66
2021/07/06 04:22:32;;;;;;;;;;;;;;;18.31;90.50;98992.91;5092687;28;1395;-67
2021/07/06 04:24:59;;;;;;;;;;;;;;;18.24;90.41;98988.41;5093949;28;898;-68
2021/07/06 04:27:26;;;;;;;;;;;;;;;18.22;90.63;98988.13;5093927;28;805;-68
2021/07/06 04:29:52;;;;;;;;;;;;;;;18.22;89.96;98990.13;5093967;28;864;-68
2021/07/06 04:32:19;;;;;;;;;;;;;;;18.29;90.46;98990.56;5093765;28;866;-67
2021/07/06 04:34:46;;;;;;;;;;;;;;;18.39;90.81;98985.66;5094030;28;885;-67
2021/07/06 04:37:13;;;;;;;;;;;;;;;18.50;90.72;98985.94;5109445;28;1433;-66
2021/07/06 04:39:39;;;;;;;;;;;;;;;18.63;90.82;98987.72;5093617;28;1889;-66
2021/07/06 04:42:06;;;;;;;;;;;;;;;18.72;90.67;98982.03;5093526;28;895;-67
2021/07/06 04:44:33;;;;;;;;;;;;;;;18.85;90.63;98987.41;5093621;28;821;-67
2021/07/06 04:46:58;;;;;;;;;;;;;;;18.95;90.35;98989.66;5093523;28;838;-67
2021/07/06 04:49:27;;;;;;;;;;;;;;;19.06;90.31;98991.13;5093557;28;869;-66
2021/07/06 04:51:54;;;;;;;;;;;;;;;19.16;90.27;99001.75;5093423;28;822;-66
2021/07/06 04:54:23;;;;;;;;;;;;;;;19.31;90.27;98998.97;5093317;28;821;-66
2021/07/06 04:56:52;;;;;;;;;;;;;;;19.42;90.20;99003.25;5092905;28;802;-66
2021/07/06 04:59:19;;;;;;;;;;;;;;;19.55;90.06;99006.53;5093168;28;1885;-66
2021/07/06 05:01:46;;;;;;;;;;;;;;;19.61;90.02;99015.78;5093239;28;841;-66
2021/07/06 05:04:13;;;;;;;;;;;;;;;19.69;90.05;99016.94;5093135;28;875;-66
2021/07/06 05:14:41;;;;;;;;;;;;;;;20.11;89.46;99024.25;5029453;28;1760;-66
2021/07/06 05:17:08;;;;;;;;;;;;;;;20.15;89.42;99024.06;5033085;28;818;-66
2021/07/06 05:19:34;;;;;;;;;;;;;;;20.18;89.33;99023.06;5033080;28;1910;-65
2021/07/06 05:22:01;;;;;;;;;;;;;;;20.28;89.30;99018.13;5033260;28;759;-65
2021/07/06 05:24:27;;;;;;;;;;;;;;;20.41;89.41;99018.56;5048264;28;1239;-65
2021/07/06 05:26:54;;;;;;;;;;;;;;;20.55;88.95;99020.56;5032569;28;782;-65
2021/07/06 05:29:21;;;;;;;;;;;;;;;20.67;88.46;99021.47;5032517;28;853;-65
2021/07/06 05:31:47;;;;;;;;;;;;;;;20.67;88.47;99015.88;5032495;28;806;-64
2021/07/06 05:34:14;;;;;;;;;;;;;;;20.69;87.79;99021.75;5032390;28;846;-64
2021/07/06 05:36:43;;;;;;;;;;;;;;;20.66;87.37;99034.00;5032379;28;811;-64
2021/07/06 05:39:08;;;;;;;;;;;;;;;20.83;88.02;99022.19;5032887;28;1886;-64
2021/07/06 05:41:35;;;;;;;;;;;;;;;21.16;87.28;99021.78;5032355;28;896;-64
2021/07/06 05:44:02;;;;;;;;;;;;;;;21.43;86.40;99020.56;5032063;28;818;-64
2021/07/06 05:46:29;;;;;;;;;;;;;;;21.68;84.55;99024.66;5032209;28;834;-64
2021/07/06 05:48:55;;;;;;;;;;;;;;;21.66;84.48;99029.19;5047443;28;1168;-65
2021/07/06 05:51:22;;;;;;;;;;;;;;;21.50;82.94;99019.34;5032445;28;816;-65
2021/07/06 05:53:49;;;;;;;;;;;;;;;21.28;83.03;99025.50;5032067;28;815;-65
2021/07/06 05:56:16;;;;;;;;;;;;;;;21.23;83.20;99027.00;5032018;28;842;-65
2021/07/06 05:58:43;;;;;;;;;;;;;;;21.21;81.94;99032.34;5031924;28;1914;-66
2021/07/06 06:01:09;;;;;;;;;;;;;;;21.12;80.82;99027.66;5032160;28;889;-65
2021/07/06 06:03:36;;;;;;;;;;;;;;;21.24;82.69;99034.16;5031968;28;814;-66
2021/07/06 06:06:03;;;;;;;;;;;;;;;21.71;82.97;99025.69;5031855;28;862;-66
2021/07/06 06:08:29;;;;;;;;;;;;;;;22.07;82.13;99027.00;5031521;28;853;-65
2021/07/06 06:10:55;;;;;;;;;;;;;;;22.20;81.53;99041.41;5031480;28;858;-65
2021/07/06 06:13:21;;;;;;;;;;;;;;;22.01;80.29;99037.44;5031702;28;1204;-66
2021/07/06 06:15:48;;;;;;;;;;;;;;;21.74;80.65;99033.13;5032037;28;814;-66
2021/07/06 06:18:15;;;;;;;;;;;;;;;21.74;81.97;99035.91;5031989;28;1942;-66
2021/07/06 06:20:42;;;;;;;;;;;;;;;21.90;81.54;99037.34;5031684;28;795;-65
2021/07/06 06:23:08;;;;;;;;;;;;;;;22.11;80.22;99023.94;5031658;28;810;-67
2021/07/06 06:25:35;;;;;;;;;;;;;;;22.22;78.44;99032.47;5031630;28;874;-66
2021/07/06 06:28:02;;;;;;;;;;;;;;;22.30;80.14;99030.00;5031582;28;811;-67
2021/07/06 06:30:28;;;;;;;;;;;;;;;22.35;79.10;99034.88;5031608;28;878;-66
2021/07/06 06:32:55;;;;;;;;;;;;;;;22.34;77.71;99034.13;5031642;28;1037;-67
2021/07/06 06:35:23;;;;;;;;;;;;;;;22.14;77.10;99039.81;5046693;28;1354;-66
2021/07/06 06:37:49;;;;;;;;;;;;;;;22.01;78.85;99038.19;5031520;28;860;-67
2021/07/06 06:40:16;;;;;;;;;;;;;;;22.00;78.29;99031.03;5031423;28;1890;-66
2021/07/06 06:42:42;;;;;;;;;;;;;;;22.02;78.78;99036.94;5031357;28;954;-66
2021/07/06 06:45:09;;;;;;;;;;;;;;;22.10;77.97;99023.16;5031459;28;850;-67
2021/07/06 06:47:36;;;;;;;;;;;;;;;22.02;78.83;99024.91;5031485;28;853;-67
2021/07/06 06:50:07;;;;;;;;;;;;;;;22.14;78.19;99029.34;5031336;28;850;-67
2021/07/06 06:52:34;;;;;;;;;;;;;;;22.20;76.81;99030.13;5031432;28;881;-67
2021/07/06 06:55:00;;;;;;;;;;;;;;;22.18;77.78;99035.50;5031359;28;818;-67
2021/07/06 06:57:27;;;;;;;;;;;;;;;22.10;76.39;99033.66;5031231;28;902;-67
2021/07/06 06:59:54;;;;;;;;;;;;;;;22.09;75.82;99030.06;5031335;28;1935;-66
2021/07/06 07:02:20;;;;;;;;;;;;;;;22.22;75.70;99032.47;5031246;28;853;-66
2021/07/06 07:04:51;;;;;;;;;;;;;;;22.54;75.75;99038.06;5031268;28;819;-66
2021/07/06 07:07:18;;;;;;;;;;;;;;;22.77;74.65;99027.69;5031255;28;782;-66
2021/07/06 07:09:45;;;;;;;;;;;;;;;22.81;71.77;99040.25;5031259;28;814;-66
2021/07/06 07:12:12;;;;;;;;;;;;;;;22.97;74.56;99038.00;5031016;28;871;-66
2021/07/06 07:14:38;;;;;;;;;;;;;;;23.02;71.40;99046.50;5031005;28;1205;-65
2021/07/06 07:17:05;;;;;;;;;;;;;;;23.05;71.77;99038.31;5031135;28;1115;-66
2021/07/06 07:19:32;;;;;;;;;;;;;;;23.05;71.78;99043.94;5031027;28;1903;-66
2021/07/06 07:21:58;;;;;;;;;;;;;;;23.25;72.79;99046.56;5034395;28;869;-66
2021/07/06 07:24:25;;;;;;;;;;;;;;;23.29;73.06;99047.09;5035250;28;877;-65
2021/07/06 07:26:52;;;;;;;;;;;;;;;23.06;73.16;99051.88;5034766;28;1008;-66
2021/07/06 07:29:19;;;;;;;;;;;;;;;22.69;75.45;99049.16;5034837;28;846;-65
2021/07/06 07:31:45;;;;;;;;;;;;;;;22.59;76.64;99054.19;5034729;28;832;-66
2021/07/06 07:34:12;;;;;;;;;;;;;;;22.81;77.51;99051.50;5034692;28;889;-67
2021/07/06 07:36:41;;;;;;;;;;;;;;;22.98;76.28;99047.97;5034703;28;838;-66
2021/07/06 07:39:08;;;;;;;;;;;;;;;23.19;76.37;99045.78;5034568;28;1878;-65
2021/07/06 07:41:34;;;;;;;;;;;;;;;23.37;76.85;99047.38;5034495;28;782;-65
2021/07/06 07:44:01;;;;;;;;;;;;;;;23.44;74.57;99047.63;5034495;28;854;-66
2021/07/06 07:46:29;;;;;;;;;;;;;;;23.08;75.91;99057.00;5049772;28;1345;-65
2021/07/06 07:48:56;;;;;;;;;;;;;;;22.86;78.78;99058.44;5034367;28;889;-65
2021/07/06 07:51:23;;;;;;;;;;;;;;;22.68;78.16;99056.03;5034725;28;791;-64
2021/07/06 07:53:50;;;;;;;;;;;;;;;22.26;78.27;99063.22;5034287;28;878;-65
2021/07/06 07:56:15;;;;;;;;;;;;;;;22.09;78.83;99063.84;5034361;28;791;-66
2021/07/06 07:58:42;;;;;;;;;;;;;;;22.25;78.26;99068.06;5034141;28;1941;-64
2021/07/06 08:01:09;;;;;;;;;;;;;;;22.38;76.30;99068.44;5034232;28;783;-64
2021/07/06 08:03:35;;;;;;;;;;;;;;;22.59;77.34;99063.41;5049509;28;837;-64
2021/07/06 08:06:02;;;;;;;;;;;;;;;23.07;76.77;99075.97;5034190;28;802;-64
2021/07/06 08:08:29;;;;;;;;;;;;;;;23.53;76.68;99076.88;5034098;28;803;-64
2021/07/06 08:10:58;;;;;;;;;;;;;;;23.44;75.35;99086.34;5033941;28;858;-64
2021/07/06 08:13:26;;;;;;;;;;;;;;;23.35;77.01;99080.94;5049126;28;1350;-64
2021/07/06 08:15:53;;;;;;;;;;;;;;;23.17;76.53;99088.56;5033861;28;826;-64
2021/07/06 08:18:20;;;;;;;;;;;;;;;23.40;75.75;99080.94;5033802;28;1961;-64
2021/07/06 08:20:47;;;;;;;;;;;;;;;23.73;75.83;99081.53;5033835;28;818;-64
2021/07/06 08:23:14;;;;;;;;;;;;;;;23.88;73.96;99082.09;5033786;28;791;-63
2021/07/06 08:25:40;;;;;;;;;;;;;;;23.97;74.13;99086.69;5033832;28;807;-64
2021/07/06 08:28:08;;;;;;;;;;;;;;;24.14;74.53;99081.06;5033916;28;862;-66
2021/07/06 08:30:35;;;;;;;;;;;;;;;23.78;71.01;99092.84;5034015;28;806;-64
2021/07/06 08:33:02;;;;;;;;;;;;;;;23.78;75.00;99086.44;5032639;28;804;-64
2021/07/06 08:35:28;;;;;;;;;;;;;;;24.24;75.58;99090.81;5033545;28;838;-64
2021/07/06 08:37:54;;;;;;;;;;;;;;;24.67;72.60;99082.03;5033471;28;846;-64
2021/07/06 08:40:21;;;;;;;;;;;;;;;24.90;72.46;99098.91;5033323;28;1914;-64
2021/07/06 08:42:48;;;;;;;;;;;;;;;25.05;72.43;99100.16;5033383;28;842;-64
2021/07/06 08:45:15;;;;;;;;;;;;;;;25.01;68.29;99104.53;5033435;28;779;-64
2021/07/06 08:47:45;;;;;;;;;;;;;;;24.79;69.34;99106.16;5033344;28;803;-64
2021/07/06 08:50:12;;;;;;;;;;;;;;;24.76;70.63;99098.69;5033235;28;869;-64
2021/07/06 08:52:41;;;;;;;;;;;;;;;24.95;72.33;99110.19;5033245;28;850;-65
2021/07/06 08:55:09;;;;;;;;;;;;;;;25.22;72.00;99114.25;5033185;28;830;-64
2021/07/06 08:57:42;;;;;;;;;;;;;;;24.85;68.82;99123.84;5033476;28;819;-64
2021/07/06 09:00:09;;;;;;;;;;;;;;;24.91;69.26;99112.53;5032987;28;1889;-64
2021/07/06 09:02:36;;;;;;;;;;;;;;;26.26;68.20;99108.94;5033148;28;814;-64
2021/07/06 09:05:03;;;;;;;;;;;;;;;27.32;65.34;99111.19;5033001;28;779;-64
2021/07/06 09:07:42;;;;;;;;;;;;;;;27.16;64.57;99104.44;5032890;28;868;-64
2021/07/06 09:10:11;;;;;;;;;;;;;;;27.12;66.49;99106.00;5032999;28;791;-64
2021/07/06 09:12:38;;;;;;;;;;;;;;;27.53;67.42;99097.25;5032997;28;1025;-65
2021/07/06 09:15:23;;;;;;;;;;;;;;;27.96;63.24;99104.88;5032573;28;1265;-64
2021/07/06 09:18:09;;;;;;;;;;;;;;;28.12;62.76;99100.22;5032780;28;862;-65
2021/07/06 09:20:35;;;;;;;;;;;;;;;27.95;63.16;99106.19;5032651;28;942;-65
2021/07/06 09:23:21;;;;;;;;;;;;;;;27.62;65.61;99116.72;5047914;28;1354;-65
2021/07/06 09:25:47;;;;;;;;;;;;;;;26.45;65.39;99116.75;5032626;28;807;-65
2021/07/06 09:28:24;;;;;;;;;;;;;;;25.78;68.66;99110.31;5032523;28;888;-65
2021/07/06 09:30:51;;;;;;;;;;;;;;;25.52;66.58;99115.63;5032607;28;849;-65
2021/07/06 09:33:27;;;;;;;;;;;;;;;25.27;68.45;99119.09;5032411;28;912;-65
2021/07/06 09:35:54;;;;;;;;;;;;;;;24.93;67.70;99129.72;5032415;28;900;-66
2021/07/06 09:38:20;;;;;;;;;;;;;;;24.73;67.10;99121.56;5032218;28;1949;-64
2021/07/06 09:40:49;;;;;;;;;;;;;;;24.47;66.96;99128.25;5032346;28;798;-64
2021/07/06 09:43:16;;;;;;;;;;;;;;;24.40;68.51;99123.13;5032231;28;926;-65
2021/07/06 09:45:46;;;;;;;;;;;;;;;24.40;68.63;99135.19;5032314;28;830;-65
2021/07/06 09:48:12;;;;;;;;;;;;;;;24.30;67.93;99133.91;5032207;28;799;-65
2021/07/06 09:50:39;;;;;;;;;;;;;;;24.22;67.93;99133.66;5032189;28;810;-65
2021/07/06 09:53:23;;;;;;;;;;;;;;;24.16;68.18;99135.72;5032197;28;838;-64
2021/07/06 09:55:50;;;;;;;;;;;;;;;24.19;69.42;99134.66;5032113;28;906;-65
2021/07/06 09:58:17;;;;;;;;;;;;;;;24.40;69.23;99146.47;5032030;28;1971;-64
2021/07/06 10:00:44;;;;;;;;;;;;;;;24.60;67.43;99136.22;5032002;28;799;-65
2021/07/06 10:03:10;;;;;;;;;;;;;;;24.80;67.54;99135.16;5031995;28;811;-65
2021/07/06 10:05:36;;;;;;;;;;;;;;;25.09;67.23;99144.31;5031956;28;866;-64
2021/07/06 10:08:03;;;;;;;;;;;;;;;25.05;66.13;99142.53;5031774;28;869;-65
2021/07/06 10:10:29;;;;;;;;;;;;;;;25.13;67.79;99142.75;5031865;28;878;-65
2021/07/06 10:12:56;;;;;;;;;;;;;;;25.50;67.98;99140.84;5031995;28;1044;-66
2021/07/06 10:15:23;;;;;;;;;;;;;;;25.71;64.57;99142.03;5031547;28;1280;-65
2021/07/06 10:17:50;;;;;;;;;;;;;;;25.71;66.45;99144.06;5031797;28;811;-66
2021/07/06 10:20:21;;;;;;;;;;;;;;;25.86;64.97;99145.25;5031672;28;1911;-66
2021/07/06 10:22:48;;;;;;;;;;;;;;;26.22;64.20;99153.78;5031645;28;952;-64
2021/07/06 10:25:14;;;;;;;;;;;;;;;26.42;63.57;99144.09;5031739;28;795;-66
2021/07/06 10:27:43;;;;;;;;;;;;;;;26.63;63.21;99141.59;5031649;28;807;-65
2021/07/06 10:30:14;;;;;;;;;;;;;;;26.78;60.86;99143.25;5031613;28;834;-65
2021/07/06 10:32:42;;;;;;;;;;;;;;;26.92;61.40;99144.16;5031519;28;831;-65
2021/07/06 10:35:11;;;;;;;;;;;;;;;27.11;62.59;99135.69;5031569;28;877;-65
2021/07/06 10:37:38;;;;;;;;;;;;;;;26.95;60.76;99128.88;5031376;28;795;-65
2021/07/06 10:40:18;;;;;;;;;;;;;;;26.84;61.44;99130.56;5031467;28;1937;-65
2021/07/06 10:42:46;;;;;;;;;;;;;;;27.09;63.57;99147.56;5031510;28;830;-64
2021/07/06 10:45:13;;;;;;;;;;;;;;;26.97;61.99;99140.47;5031465;28;912;-63
2021/07/06 10:47:41;;;;;;;;;;;;;;;26.70;62.25;99150.81;5031441;28;791;-64
2021/07/06 10:50:39;;;;;;;;;;;;;;;26.63;63.38;99150.09;5031410;28;878;-64
2021/07/06 10:53:24;;;;;;;;;;;;;;;26.69;62.98;99144.38;5018423;28;1447;-65
2021/07/06 10:56:01;;;;;;;;;;;;;;;27.04;62.90;99145.56;5032976;28;861;-63
2021/07/06 10:58:47;;;;;;;;;;;;;;;27.31;61.15;99135.19;5035353;28;1890;-64
2021/07/06 11:01:32;;;;;;;;;;;;;;;27.85;63.08;99137.06;5035451;28;826;-64
2021/07/06 11:03:59;;;;;;;;;;;;;;;27.93;59.28;99142.09;5036052;28;771;-64
2021/07/06 11:06:44;;;;;;;;;;;;;;;27.47;59.28;99145.56;5036003;28;735;-64
2021/07/06 11:09:33;;;;;;;;;;;;;;;27.40;62.16;99137.66;5035097;28;846;-65
2021/07/06 11:12:18;;;;;;;;;;;;;;;27.47;61.01;99139.88;5034975;28;1183;-64
2021/07/06 11:14:50;;;;;;;;;;;;;;;27.21;60.62;99125.50;5034910;28;1329;-66
2021/07/06 11:17:32;;;;;;;;;;;;;;;26.84;59.98;99126.94;5035351;28;807;-64
2021/07/06 11:20:08;;;;;;;;;;;;;;;26.77;62.76;99127.56;5034807;28;1902;-65
2021/07/06 11:22:46;;;;;;;;;;;;;;;26.60;62.23;99122.06;5035030;28;798;-63
2021/07/06 11:25:19;;;;;;;;;;;;;;;26.30;61.03;99119.22;5034924;28;798;-64
2021/07/06 11:28:05;;;;;;;;;;;;;;;26.32;62.22;99122.28;5034984;28;799;-65
2021/07/06 11:30:33;;;;;;;;;;;;;;;26.07;62.45;99133.56;5034916;28;807;-64
2021/07/06 11:33:13;;;;;;;;;;;;;;;25.97;62.51;99129.53;5034713;28;881;-63
2021/07/06 11:35:44;;;;;;;;;;;;;;;26.19;63.17;99129.34;5034914;28;834;-63
2021/07/06 11:38:14;;;;;;;;;;;;;;;26.18;61.35;99127.81;5034509;28;838;-63
2021/07/06 11:40:42;;;;;;;;;;;;;;;26.09;63.71;99133.78;5034591;28;1053;-64
2021/07/06 11:43:09;;;;;;;;;;;;;;;25.94;62.86;99130.56;5034538;28;842;-63
2021/07/06 11:45:36;;;;;;;;;;;;;;;25.92;65.04;99127.50;5034566;28;845;-64
2021/07/06 11:48:07;;;;;;;;;;;;;;;25.75;64.08;99127.56;5034388;28;859;-63
2021/07/06 11:50:34;;;;;;;;;;;;;;;25.62;64.89;99123.28;5034477;28;794;-64
2021/07/06 11:53:01;;;;;;;;;;;;;;;25.72;65.00;99129.41;5034431;28;783;-64
2021/07/06 11:55:29;;;;;;;;;;;;;;;25.84;66.03;99130.09;5034663;28;787;-65
2021/07/06 11:57:55;;;;;;;;;;;;;;;25.94;64.96;99131.31;5034297;28;865;-64
2021/07/06 12:00:23;;;;;;;;;;;;;;;26.01;66.10;99130.78;5034203;28;1939;-64
2021/07/06 12:02:50;;;;;;;;;;;;;;;26.16;65.82;99124.75;5034239;28;787;-64
2021/07/06 12:05:19;;;;;;;;;;;;;;;26.34;64.82;99119.69;5034091;28;858;-63
2021/07/06 12:07:46;;;;;;;;;;;;;;;26.53;67.23;99125.44;5032778;28;854;-65
2021/07/06 12:10:12;;;;;;;;;;;;;;;26.70;68.03;99120.41;5034155;28;815;-65
2021/07/06 12:12:39;;;;;;;;;;;;;;;26.91;64.79;99117.88;5034081;28;990;-63
2021/07/06 12:15:06;;;;;;;;;;;;;;;26.79;64.15;99116.44;5033810;28;1313;-63
2021/07/06 12:17:33;;;;;;;;;;;;;;;26.63;62.20;99121.00;5033927;28;810;-63
2021/07/06 12:20:00;;;;;;;;;;;;;;;26.76;63.33;99121.13;5033824;28;1961;-64
2021/07/06 12:22:27;;;;;;;;;;;;;;;26.84;62.33;99113.56;5033834;28;807;-63
2021/07/06 12:24:55;;;;;;;;;;;;;;;26.88;60.57;99093.41;5033819;28;826;-63
2021/07/06 12:27:22;;;;;;;;;;;;;;;26.78;59.62;99109.22;5033699;28;831;-63
2021/07/06 12:30:01;;;;;;;;;;;;;;;26.69;61.63;99104.69;5033784;28;1029;-62
2021/07/06 12:32:28;;;;;;;;;;;;;;;26.60;61.98;99102.22;5033821;28;850;-63
2021/07/06 12:34:58;;;;;;;;;;;;;;;26.70;62.12;99109.06;5033610;28;790;-63
2021/07/06 12:37:26;;;;;;;;;;;;;;;26.76;63.97;99101.28;5034027;28;877;-64
2021/07/06 12:39:53;;;;;;;;;;;;;;;26.82;63.15;99106.88;5033670;28;1939;-64
2021/07/06 12:42:24;;;;;;;;;;;;;;;26.65;62.01;99101.38;5033791;28;842;-63
2021/07/06 12:44:50;;;;;;;;;;;;;;;26.44;60.54;99115.22;5033583;28;826;-62
2021/07/06 12:47:27;;;;;;;;;;;;;;;26.25;61.32;99112.31;5033434;28;807;-62
2021/07/06 12:49:55;;;;;;;;;;;;;;;26.15;62.11;99117.53;5033328;28;822;-63
2021/07/06 12:52:25;;;;;;;;;;;;;;;26.19;62.34;99118.00;5033353;28;878;-63
2021/07/06 12:54:52;;;;;;;;;;;;;;;26.34;62.67;99114.03;5033200;28;810;-64
2021/07/06 12:57:25;;;;;;;;;;;;;;;26.36;60.43;99120.69;5033185;28;1028;-63
2021/07/06 13:00:06;;;;;;;;;;;;;;;26.52;62.49;99109.75;5033122;28;1886;-63
2021/07/06 13:02:33;;;;;;;;;;;;;;;26.76;61.24;99112.63;5033107;28;862;-64
2021/07/06 13:04:59;;;;;;;;;;;;;;;26.83;60.29;99097.84;5032984;28;846;-63
2021/07/06 13:07:27;;;;;;;;;;;;;;;26.86;60.66;99096.00;5033013;28;835;-64
2021/07/06 13:10:06;;;;;;;;;;;;;;;26.82;60.63;99104.03;5032965;28;863;-63
2021/07/06 13:12:33;;;;;;;;;;;;;;;26.96;61.17;99105.69;5032969;28;917;-63
2021/07/06 13:15:00;;;;;;;;;;;;;;;27.01;60.83;99098.41;5032711;28;1255;-64
2021/07/06 13:17:27;;;;;;;;;;;;;;;27.09;60.71;99105.78;5032763;28;779;-63
2021/07/06 13:20:07;;;;;;;;;;;;;;;27.01;59.23;99104.06;5032319;28;1906;-63